createdAt,value
2022-12-04T00:01:31.783Z,101435.04
2022-12-04T00:04:03.330Z,101432.88
2022-12-04T00:06:34.890Z,101427.49
2022-12-04T00:09:06.715Z,101434.15
2022-12-04T00:11:37.630Z,101435.83
2022-12-04T00:14:09.099Z,101430.15
2022-12-04T00:16:40.044Z,101422.52
2022-12-04T00:19:11.232Z,101427.36
2022-12-04T00:21:41.991Z,101439.60
2022-12-04T00:24:12.798Z,101439.91
2022-12-04T00:26:43.553Z,101446.91
2022-12-04T00:29:14.402Z,101442.23
2022-12-04T00:31:45.250Z,101441.55
2022-12-04T00:34:16.148Z,101439.27
2022-12-04T00:36:47.094Z,101439.73
2022-12-04T00:39:17.933Z,101436.73
2022-12-04T00:41:48.773Z,101445.39
2022-12-04T00:44:19.650Z,101437.23
2022-12-04T00:46:50.419Z,101439.14
2022-12-04T00:49:21.220Z,101438.86
2022-12-04T00:51:52.211Z,101440.10
2022-12-04T00:54:23.587Z,101437.17
2022-12-04T00:56:54.406Z,101434.48
2022-12-04T00:59:25.252Z,101439.00
2022-12-04T01:01:56.300Z,101433.21
2022-12-04T01:04:27.134Z,101428.92
2022-12-04T01:07:01.702Z,101435.63
2022-12-04T01:09:36.201Z,101435.95
2022-12-04T01:12:07.264Z,101449.34
2022-12-04T01:14:38.167Z,101438.11
2022-12-04T01:17:09.043Z,101438.33
2022-12-04T01:19:39.825Z,101442.61
2022-12-04T01:22:10.644Z,101441.27
2022-12-04T01:24:41.406Z,101433.37
2022-12-04T01:27:12.254Z,101432.29
2022-12-04T01:29:43.045Z,101439.58
2022-12-04T01:32:13.973Z,101436.36
2022-12-04T01:34:45.201Z,101446.84
2022-12-04T01:37:16.127Z,101443.20
2022-12-04T01:39:46.947Z,101444.16
2022-12-04T01:42:18.207Z,101443.70
2022-12-04T01:45:19.529Z,101450.83
2022-12-04T01:47:50.397Z,101440.45
2022-12-04T01:50:21.261Z,101437.17
2022-12-04T01:52:52.959Z,101437.48
2022-12-04T01:55:23.994Z,101432.70
2022-12-04T01:57:54.942Z,101434.88
2022-12-04T02:00:26.220Z,101432.15
2022-12-04T02:02:58.327Z,101434.41
2022-12-04T02:05:29.330Z,101433.31
2022-12-04T02:08:05.598Z,101437.22
2022-12-04T02:10:48.988Z,101428.44
2022-12-04T02:13:28.112Z,101422.70
2022-12-04T02:16:11.305Z,101428.80
2022-12-04T02:18:54.626Z,101419.79
2022-12-04T02:21:31.567Z,101424.38
2022-12-04T02:24:28.553Z,101419.08
2022-12-04T02:27:03.446Z,101412.89
2022-12-04T02:29:42.495Z,101413.83
2022-12-04T02:32:21.300Z,101414.96
2022-12-04T02:34:59.938Z,101413.61
2022-12-04T02:37:35.283Z,101414.44
2022-12-04T02:40:08.091Z,101420.79
2022-12-04T02:42:43.631Z,101425.52
2022-12-04T02:45:18.670Z,101424.08
2022-12-04T02:47:49.697Z,101422.44
2022-12-04T02:50:22.998Z,101416.66
2022-12-04T02:53:00.114Z,101415.00
2022-12-04T02:55:35.497Z,101419.10
2022-12-04T02:58:10.658Z,101423.73
2022-12-04T03:00:45.715Z,101423.09
2022-12-04T03:03:22.285Z,101424.05
2022-12-04T03:05:58.447Z,101418.77
2022-12-04T03:08:34.186Z,101421.20
2022-12-04T03:11:05.248Z,101417.35
2022-12-04T03:13:42.737Z,101415.63
2022-12-04T03:16:18.021Z,101408.67
2022-12-04T03:18:54.345Z,101403.30
2022-12-04T03:21:31.128Z,101398.95
2022-12-04T03:24:08.003Z,101401.27
2022-12-04T03:26:44.037Z,101401.84
2022-12-04T03:29:20.960Z,101400.04
2022-12-04T03:32:00.180Z,101400.43
2022-12-04T03:34:37.469Z,101397.28
2022-12-04T03:37:15.272Z,101398.09
2022-12-04T03:39:54.089Z,101403.23
2022-12-04T03:42:28.534Z,101402.75
2022-12-04T03:45:05.446Z,101399.63
2022-12-04T03:47:43.167Z,101392.93
2022-12-04T03:50:19.568Z,101393.08
2022-12-04T03:53:00.028Z,101398.13
2022-12-04T03:55:35.772Z,101395.09
2022-12-04T03:58:11.448Z,101395.73
2022-12-04T04:00:45.417Z,101391.56
2022-12-04T04:03:19.978Z,101394.95
2022-12-04T04:05:56.118Z,101398.16
2022-12-04T04:08:34.267Z,101392.17
2022-12-04T04:11:13.283Z,101392.65
2022-12-04T04:14:04.794Z,101390.57
2022-12-04T04:16:57.201Z,101394.34
2022-12-04T04:19:50.300Z,101399.31
2022-12-04T04:22:41.961Z,101395.39
2022-12-04T04:25:17.058Z,101397.45
2022-12-04T04:27:56.231Z,101384.30
2022-12-04T04:30:28.795Z,101379.90
2022-12-04T04:33:05.958Z,101375.95
2022-12-04T04:35:45.709Z,101373.69
2022-12-04T04:38:23.194Z,101374.15
2022-12-04T04:40:59.217Z,101378.02
2022-12-04T04:43:37.017Z,101379.70
2022-12-04T04:46:12.748Z,101379.77
2022-12-04T04:48:46.891Z,101390.35
2022-12-04T04:51:18.955Z,101391.86
2022-12-04T04:53:53.831Z,101396.60
2022-12-04T04:56:25.443Z,101394.86
2022-12-04T04:58:56.271Z,101397.52
2022-12-04T05:01:29.107Z,101394.48
2022-12-04T05:04:00.255Z,101396.98
2022-12-04T05:06:31.190Z,101404.38
2022-12-04T05:09:01.992Z,101399.07
2022-12-04T05:11:32.886Z,101402.12
2022-12-04T05:14:03.712Z,101400.07
2022-12-04T05:16:34.612Z,101404.61
2022-12-04T05:19:23.198Z,101404.43
2022-12-04T05:21:54.097Z,101400.27
2022-12-04T05:24:24.964Z,101401.63
2022-12-04T05:26:55.768Z,101400.02
2022-12-04T05:29:27.826Z,101402.45
2022-12-04T05:32:01.255Z,101405.67
2022-12-04T05:34:32.233Z,101412.17
2022-12-04T05:37:03.786Z,101420.15
2022-12-04T05:39:34.820Z,101427.31
2022-12-04T05:42:05.671Z,101424.83
2022-12-04T05:44:36.556Z,101419.50
2022-12-04T05:47:07.872Z,101427.33
2022-12-04T05:49:38.788Z,101420.58
2022-12-04T05:52:10.636Z,101419.30
2022-12-04T05:54:41.688Z,101413.88
2022-12-04T05:57:12.530Z,101409.13
2022-12-04T05:59:43.912Z,101417.33
2022-12-04T06:02:14.894Z,101412.39
2022-12-04T06:04:45.865Z,101416.33
2022-12-04T06:07:16.742Z,101416.98
2022-12-04T06:09:47.845Z,101422.78
2022-12-04T06:12:18.682Z,101425.00
2022-12-04T06:14:49.518Z,101427.46
2022-12-04T06:17:20.355Z,101426.23
2022-12-04T06:19:53.698Z,101417.14
2022-12-04T06:22:24.872Z,101424.64
2022-12-04T06:24:55.735Z,101427.42
2022-12-04T06:27:28.023Z,101432.52
2022-12-04T06:29:59.503Z,101439.79
2022-12-04T06:32:30.717Z,101439.05
2022-12-04T06:35:01.873Z,101435.01
2022-12-04T06:37:32.899Z,101435.77
2022-12-04T06:40:03.837Z,101444.52
2022-12-04T06:42:34.584Z,101447.34
2022-12-04T06:45:06.603Z,101451.15
2022-12-04T06:47:38.297Z,101450.52
2022-12-04T06:50:11.090Z,101447.75
2022-12-04T06:52:42.197Z,101450.34
2022-12-04T06:55:13.189Z,101450.95
2022-12-04T06:57:43.999Z,101443.75
2022-12-04T07:00:16.512Z,101445.88
2022-12-04T07:02:48.154Z,101455.36
2022-12-04T07:05:19.252Z,101451.62
2022-12-04T07:07:50.345Z,101447.79
2022-12-04T07:10:22.039Z,101445.11
2022-12-04T07:12:52.834Z,101444.92
2022-12-04T07:15:23.769Z,101454.45
2022-12-04T07:17:55.005Z,101451.52
2022-12-04T07:20:25.945Z,101451.77
2022-12-04T07:22:56.996Z,101451.36
2022-12-04T07:25:29.616Z,101449.39
2022-12-04T07:28:00.610Z,101449.00
2022-12-04T07:30:31.548Z,101441.46
2022-12-04T07:33:02.490Z,101442.77
2022-12-04T07:35:33.513Z,101443.16
2022-12-04T07:38:04.316Z,101450.88
2022-12-04T07:40:35.356Z,101453.75
2022-12-04T07:43:06.151Z,101460.05
2022-12-04T07:45:38.005Z,101463.99
2022-12-04T07:48:09.465Z,101465.39
2022-12-04T07:50:40.288Z,101473.59
2022-12-04T07:53:11.294Z,101480.04
2022-12-04T07:55:42.187Z,101469.79
2022-12-04T07:58:13.018Z,101472.15
2022-12-04T08:00:43.805Z,101473.98
2022-12-04T08:03:14.588Z,101474.30
2022-12-04T08:05:45.463Z,101475.29
2022-12-04T08:08:16.688Z,101480.18
2022-12-04T08:10:47.554Z,101481.80
2022-12-04T08:13:18.360Z,101478.62
2022-12-04T08:15:49.382Z,101471.91
2022-12-04T08:18:20.564Z,101467.25
2022-12-04T08:20:51.787Z,101466.92
2022-12-04T08:23:22.658Z,101470.89
2022-12-04T08:25:53.457Z,101472.77
2022-12-04T08:28:24.264Z,101470.17
2022-12-04T08:30:55.185Z,101469.56
2022-12-04T08:33:26.703Z,101474.02
2022-12-04T08:35:57.572Z,101476.23
2022-12-04T08:38:28.458Z,101470.90
2022-12-04T08:41:02.695Z,101472.80
2022-12-04T08:43:34.128Z,101468.60
2022-12-04T08:46:07.386Z,101466.66
2022-12-04T08:48:39.215Z,101468.30
2022-12-04T08:51:14.141Z,101461.50
2022-12-04T08:53:45.556Z,101469.34
2022-12-04T08:56:16.941Z,101467.64
2022-12-04T08:58:47.981Z,101455.20
2022-12-04T09:01:19.751Z,101457.54
2022-12-04T09:03:51.377Z,101469.70
2022-12-04T09:06:22.577Z,101468.96
2022-12-04T09:08:56.129Z,101463.11
2022-12-04T09:11:32.892Z,101464.31
2022-12-04T09:14:05.830Z,101461.75
2022-12-04T09:16:36.725Z,101466.52
2022-12-04T09:19:07.892Z,101454.69
2022-12-04T09:21:39.027Z,101451.94
2022-12-04T09:24:10.256Z,101465.11
2022-12-04T09:26:41.535Z,101454.64
2022-12-04T09:29:13.192Z,101454.23
2022-12-04T09:31:44.193Z,101453.92
2022-12-04T09:34:15.378Z,101451.73
2022-12-04T09:36:46.339Z,101453.40
2022-12-04T09:39:17.237Z,101451.60
2022-12-04T09:42:21.470Z,101439.67
2022-12-04T09:45:00.060Z,101446.54
2022-12-04T09:47:35.936Z,101448.13
2022-12-04T09:50:13.422Z,101446.38
2022-12-04T09:52:52.001Z,101451.06
2022-12-04T09:55:28.818Z,101443.42
2022-12-04T09:58:02.851Z,101440.21
2022-12-04T10:00:38.075Z,101436.14
2022-12-04T10:03:12.410Z,101437.67
2022-12-04T10:05:54.851Z,101426.77
2022-12-04T10:08:29.866Z,101423.83
2022-12-04T10:11:14.115Z,101420.38
2022-12-04T10:13:58.910Z,101423.02
2022-12-04T10:16:40.049Z,101416.69
2022-12-04T10:19:20.251Z,101420.77
2022-12-04T10:22:06.524Z,101422.61
2022-12-04T10:24:45.369Z,101416.86
2022-12-04T10:27:24.905Z,101420.48
2022-12-04T10:30:01.931Z,101419.73
2022-12-04T10:32:34.804Z,101414.23
2022-12-04T10:35:20.445Z,101416.66
2022-12-04T10:37:52.585Z,101411.77
2022-12-04T10:40:27.435Z,101412.86
2022-12-04T10:43:05.656Z,101402.83
2022-12-04T10:45:38.192Z,101400.48
2022-12-04T10:48:14.092Z,101402.11
2022-12-04T10:50:47.250Z,101392.33
2022-12-04T10:53:26.177Z,101394.29
2022-12-04T10:55:57.434Z,101392.15
2022-12-04T10:58:30.291Z,101388.76
2022-12-04T11:01:06.784Z,101385.72
2022-12-04T11:03:38.342Z,101386.26
2022-12-04T11:06:11.722Z,101375.02
2022-12-04T11:08:52.115Z,101374.52
2022-12-04T11:11:29.653Z,101373.11
2022-12-04T11:14:08.939Z,101368.58
2022-12-04T11:16:44.575Z,101372.95
2022-12-04T11:19:27.755Z,101373.59
2022-12-04T11:22:04.866Z,101374.48
2022-12-04T11:24:38.599Z,101371.80
2022-12-04T11:27:17.810Z,101369.71
2022-12-04T11:29:50.598Z,101366.73
2022-12-04T11:32:25.123Z,101364.88
2022-12-04T11:35:00.069Z,101367.02
2022-12-04T11:37:35.865Z,101367.80
2022-12-04T11:40:19.685Z,101370.88
2022-12-04T11:43:04.495Z,101371.02
2022-12-04T11:45:35.548Z,101364.16
2022-12-04T11:48:15.842Z,101364.04
2022-12-04T11:50:55.498Z,101362.23
2022-12-04T11:53:35.315Z,101358.41
2022-12-04T11:56:18.970Z,101365.05
2022-12-04T11:59:22.228Z,101368.46
2022-12-04T12:02:01.687Z,101364.66
2022-12-04T12:04:55.038Z,101366.57
2022-12-04T12:07:36.084Z,101360.98
2022-12-04T12:10:17.401Z,101360.77
2022-12-04T12:12:58.743Z,101362.08
2022-12-04T12:15:41.632Z,101364.02
2022-12-04T12:18:29.131Z,101362.19
2022-12-04T12:21:10.260Z,101365.31
2022-12-04T12:23:51.261Z,101349.73
2022-12-04T12:26:25.734Z,101348.02
2022-12-04T12:29:17.069Z,101352.30
2022-12-04T12:32:06.704Z,101339.19
2022-12-04T12:34:44.436Z,101340.33
2022-12-04T12:37:24.354Z,101340.21
2022-12-04T12:40:01.193Z,101339.95
2022-12-04T12:42:39.984Z,101338.02
2022-12-04T12:45:24.975Z,101335.82
2022-12-04T12:48:01.861Z,101336.00
2022-12-04T12:50:39.989Z,101342.28
2022-12-04T12:53:18.028Z,101351.45
2022-12-04T12:55:51.915Z,101350.66
2022-12-04T12:58:30.431Z,101351.30
2022-12-04T13:01:07.557Z,101351.23
2022-12-04T13:03:46.313Z,101344.04
2022-12-04T13:06:21.949Z,101346.11
2022-12-04T13:09:26.243Z,101344.25
2022-12-04T13:12:02.920Z,101355.79
2022-12-04T13:14:34.300Z,101352.51
2022-12-04T13:17:13.106Z,101350.73
2022-12-04T13:19:51.915Z,101353.02
2022-12-04T13:22:38.669Z,101350.23
2022-12-04T13:25:22.731Z,101346.52
2022-12-04T13:28:06.824Z,101357.52
2022-12-04T13:30:48.938Z,101348.93
2022-12-04T13:33:41.943Z,101350.50
2022-12-04T13:36:33.309Z,101357.27
2022-12-04T13:39:34.500Z,101365.95
2022-12-04T13:42:07.877Z,101363.17
2022-12-04T13:44:38.772Z,101356.21
2022-12-04T13:47:26.611Z,101363.77
2022-12-04T13:50:27.592Z,101360.92
2022-12-04T13:53:00.686Z,101368.13
2022-12-04T13:55:35.189Z,101360.06
2022-12-04T13:58:27.654Z,101367.88
2022-12-04T14:01:13.115Z,101373.64
2022-12-04T14:03:49.537Z,101375.30
2022-12-04T14:06:27.362Z,101372.75
2022-12-04T14:09:01.644Z,101379.23
2022-12-04T14:11:42.904Z,101375.66
2022-12-04T14:14:26.996Z,101377.59
2022-12-04T14:17:00.628Z,101375.29
2022-12-04T14:19:35.674Z,101379.39
2022-12-04T14:22:06.859Z,101377.23
2022-12-04T14:24:39.866Z,101380.59
2022-12-04T14:27:36.304Z,101383.68
2022-12-04T14:30:17.284Z,101382.98
2022-12-04T14:32:50.329Z,101390.40
2022-12-04T14:35:24.423Z,101388.65
2022-12-04T14:37:59.941Z,101387.21
2022-12-04T14:40:37.720Z,101387.30
2022-12-04T14:43:14.917Z,101386.10
2022-12-04T14:45:52.120Z,101393.89
2022-12-04T14:48:34.717Z,101395.54
2022-12-04T14:51:14.920Z,101391.06
2022-12-04T14:53:51.857Z,101390.42
2022-12-04T14:56:40.014Z,101392.74
2022-12-04T14:59:19.409Z,101388.27
2022-12-04T15:01:52.432Z,101391.27
2022-12-04T15:04:35.742Z,101387.76
2022-12-04T15:07:07.479Z,101403.88
2022-12-04T15:09:56.906Z,101391.44
2022-12-04T15:12:34.977Z,101392.08
2022-12-04T15:15:16.278Z,101397.71
2022-12-04T15:17:56.191Z,101407.80
2022-12-04T15:20:29.493Z,101396.91
2022-12-04T15:23:04.553Z,101395.09
2022-12-04T15:25:41.693Z,101393.59
2022-12-04T15:28:19.189Z,101390.72
2022-12-04T15:30:56.691Z,101396.31
2022-12-04T15:33:30.931Z,101400.20
2022-12-04T15:36:05.854Z,101393.30
2022-12-04T15:38:42.861Z,101389.86
2022-12-04T15:41:33.990Z,101397.75
2022-12-04T15:44:19.679Z,101389.84
2022-12-04T15:46:50.905Z,101384.22
2022-12-04T15:49:26.439Z,101382.86
2022-12-04T15:52:09.317Z,101383.05
2022-12-04T15:54:45.666Z,101386.84
2022-12-04T15:57:26.714Z,101387.02
2022-12-04T16:00:03.112Z,101383.34
2022-12-04T16:02:40.639Z,101387.34
2022-12-04T16:05:27.516Z,101382.69
2022-12-04T16:08:00.671Z,101388.38
2022-12-04T16:10:34.019Z,101389.15
2022-12-04T16:13:06.852Z,101384.38
2022-12-04T16:15:41.099Z,101380.19
2022-12-04T16:18:15.480Z,101382.23
2022-12-04T16:20:46.610Z,101389.44
2022-12-04T16:23:19.083Z,101375.58
2022-12-04T16:25:53.566Z,101369.60
2022-12-04T16:28:24.959Z,101373.83
2022-12-04T16:30:56.757Z,101376.19
2022-12-04T16:33:28.148Z,101375.79
2022-12-04T16:35:59.233Z,101377.05
2022-12-04T16:38:30.415Z,101379.76
2022-12-04T16:41:01.614Z,101387.30
2022-12-04T16:43:33.110Z,101385.89
2022-12-04T16:46:04.236Z,101384.10
2022-12-04T16:48:36.381Z,101378.10
2022-12-04T16:51:07.597Z,101385.78
2022-12-04T16:53:38.505Z,101388.79
2022-12-04T16:56:11.330Z,101378.11
2022-12-04T16:58:42.254Z,101375.06
2022-12-04T17:01:21.270Z,101379.61
2022-12-04T17:03:52.627Z,101373.19
2022-12-04T17:06:24.403Z,101365.20
2022-12-04T17:08:55.376Z,101366.05
2022-12-04T17:11:26.593Z,101369.79
2022-12-04T17:13:57.513Z,101370.48
2022-12-04T17:16:29.624Z,101372.11
2022-12-04T17:19:00.726Z,101375.58
2022-12-04T17:21:32.164Z,101366.13
2022-12-04T17:24:03.536Z,101358.88
2022-12-04T17:26:35.182Z,101361.64
2022-12-04T17:29:06.217Z,101362.41
2022-12-04T17:31:37.464Z,101357.33
2022-12-04T17:34:08.615Z,101354.82
2022-12-04T17:36:39.655Z,101352.27
2022-12-04T17:39:13.496Z,101346.68
2022-12-04T17:41:44.718Z,101348.31
2022-12-04T17:44:15.824Z,101349.96
2022-12-04T17:46:47.938Z,101336.54
2022-12-04T17:49:19.041Z,101344.84
2022-12-04T17:51:50.073Z,101335.48
2022-12-04T17:54:21.135Z,101337.39
2022-12-04T17:56:57.421Z,101344.96
2022-12-04T17:59:29.485Z,101340.59
2022-12-04T18:02:00.365Z,101340.55
2022-12-04T18:04:31.301Z,101341.16
2022-12-04T18:07:02.217Z,101346.60
2022-12-04T18:09:33.377Z,101352.30
2022-12-04T18:12:04.674Z,101353.08
2022-12-04T18:14:35.561Z,101350.60
2022-12-04T18:17:06.486Z,101355.68
2022-12-04T18:19:37.974Z,101353.88
2022-12-04T18:22:08.758Z,101354.41
2022-12-04T18:24:39.914Z,101364.45
2022-12-04T18:27:11.169Z,101361.08
2022-12-04T18:29:42.414Z,101359.70
2022-12-04T18:32:13.332Z,101360.47
2022-12-04T18:34:44.464Z,101360.95
2022-12-04T18:37:15.226Z,101367.27
2022-12-04T18:39:46.210Z,101373.00
2022-12-04T18:42:16.968Z,101372.64
2022-12-04T18:44:49.096Z,101376.70
2022-12-04T18:47:19.880Z,101376.84
2022-12-04T18:49:50.680Z,101372.35
2022-12-04T18:52:21.434Z,101369.89
2022-12-04T18:54:52.208Z,101370.08
2022-12-04T18:57:26.410Z,101372.19
2022-12-04T19:00:00.904Z,101370.18
2022-12-04T19:02:31.977Z,101368.10
2022-12-04T19:05:03.260Z,101357.28
2022-12-04T19:07:34.271Z,101366.05
2022-12-04T19:10:12.502Z,101362.13
2022-12-04T19:12:43.323Z,101362.91
2022-12-04T19:15:14.814Z,101368.94
2022-12-04T19:17:45.740Z,101369.13
2022-12-04T19:20:18.389Z,101368.40
2022-12-04T19:22:49.163Z,101372.27
2022-12-04T19:25:19.934Z,101367.36
2022-12-04T19:27:50.737Z,101364.75
2022-12-04T19:30:22.101Z,101353.80
2022-12-04T19:32:52.993Z,101354.80
2022-12-04T19:35:23.802Z,101348.06
2022-12-04T19:37:55.942Z,101345.42
2022-12-04T19:40:26.835Z,101339.71
2022-12-04T19:43:02.780Z,101333.55
2022-12-04T19:45:34.645Z,101332.98
2022-12-04T19:48:06.152Z,101336.48
2022-12-04T19:50:38.240Z,101346.31
2022-12-04T19:53:09.808Z,101344.44
2022-12-04T19:55:40.782Z,101364.42
2022-12-04T19:58:12.502Z,101357.92
2022-12-04T20:00:43.650Z,101358.05
2022-12-04T20:03:15.082Z,101371.60
2022-12-04T20:05:47.048Z,101381.59
2022-12-04T20:08:18.041Z,101388.39
2022-12-04T20:10:49.956Z,101394.52
2022-12-04T20:13:22.527Z,101393.46
2022-12-04T20:15:53.601Z,101400.02
2022-12-04T20:18:25.004Z,101403.87
2022-12-04T20:21:00.659Z,101407.53
2022-12-04T20:23:32.090Z,101416.48
2022-12-04T20:26:08.473Z,101421.35
2022-12-04T20:28:42.249Z,101420.61
2022-12-04T20:31:18.264Z,101409.93
2022-12-04T20:33:51.407Z,101403.69
2022-12-04T20:36:24.330Z,101402.12
2022-12-04T20:38:59.282Z,101404.20
2022-12-04T20:41:32.307Z,101401.52
2022-12-04T20:44:06.779Z,101400.27
2022-12-04T20:46:39.585Z,101391.53
2022-12-04T20:49:17.250Z,101392.89
2022-12-04T20:51:53.503Z,101387.56
2022-12-04T20:54:25.096Z,101389.30
2022-12-04T20:56:57.601Z,101380.39
2022-12-04T20:59:28.606Z,101386.30
2022-12-04T21:02:02.161Z,101378.41
2022-12-04T21:04:36.377Z,101373.80
2022-12-04T21:07:07.632Z,101367.42
2022-12-04T21:09:38.937Z,101361.96
2022-12-04T21:12:24.248Z,101357.24
2022-12-04T21:15:12.180Z,101349.05
2022-12-04T21:17:43.738Z,101350.19
2022-12-04T21:20:16.271Z,101357.47
2022-12-04T21:22:47.292Z,101355.86
2022-12-04T21:25:20.097Z,101354.36
2022-12-04T21:27:51.135Z,101354.93
2022-12-04T21:30:22.463Z,101358.93
2022-12-04T21:32:54.696Z,101360.66
2022-12-04T21:35:30.400Z,101356.36
2022-12-04T21:38:01.539Z,101356.39
2022-12-04T21:40:39.006Z,101361.88
2022-12-04T21:43:15.704Z,101354.78
2022-12-04T21:45:46.921Z,101358.67
2022-12-04T21:48:17.937Z,101353.05
2022-12-04T21:50:49.144Z,101356.42
2022-12-04T21:53:20.235Z,101347.77
2022-12-04T21:55:54.143Z,101344.14
2022-12-04T21:58:28.691Z,101343.55
2022-12-04T22:00:59.650Z,101352.86
2022-12-04T22:03:33.329Z,101349.20
2022-12-04T22:06:10.711Z,101347.04
2022-12-04T22:08:43.186Z,101342.23
2022-12-04T22:11:15.481Z,101340.37
2022-12-04T22:13:46.525Z,101330.34
2022-12-04T22:16:21.895Z,101334.55
2022-12-04T22:18:58.632Z,101337.49
2022-12-04T22:21:30.120Z,101331.39
2022-12-04T22:24:02.266Z,101337.95
2022-12-04T22:26:34.206Z,101336.27
2022-12-04T22:29:27.054Z,101333.55
2022-12-04T22:31:56.789Z,101330.53
2022-12-04T22:34:29.047Z,101324.83
2022-12-04T22:37:00.276Z,101324.60
2022-12-04T22:39:33.706Z,101327.10
2022-12-04T22:42:04.753Z,101326.34
2022-12-04T22:44:35.954Z,101319.91
2022-12-04T22:47:07.220Z,101318.36
2022-12-04T22:49:38.083Z,101310.88
2022-12-04T22:52:09.017Z,101317.10
2022-12-04T22:54:39.857Z,101312.38
2022-12-04T22:57:10.713Z,101317.15
2022-12-04T22:59:41.615Z,101312.07
2022-12-04T23:02:12.547Z,101310.22
2022-12-04T23:04:44.146Z,101308.73
2022-12-04T23:07:15.007Z,101306.02
2022-12-04T23:09:45.916Z,101307.84
2022-12-04T23:12:16.790Z,101307.80
2022-12-04T23:14:47.608Z,101304.48
2022-12-04T23:17:18.505Z,101306.79
2022-12-04T23:19:49.289Z,101318.92
2022-12-04T23:22:20.059Z,101311.11
2022-12-04T23:24:51.092Z,101314.52
2022-12-04T23:27:21.895Z,101308.48
2022-12-04T23:29:54.277Z,101314.52
2022-12-04T23:32:25.209Z,101313.12
2022-12-04T23:34:56.487Z,101313.12
2022-12-04T23:37:27.249Z,101314.02
2022-12-04T23:39:58.229Z,101314.83
2022-12-04T23:42:33.609Z,101314.84
2022-12-04T23:45:07.308Z,101314.28
2022-12-04T23:47:38.309Z,101310.63
2022-12-04T23:50:10.699Z,101303.20
2022-12-04T23:52:41.546Z,101300.32
2022-12-04T23:55:12.516Z,101300.80
2022-12-04T23:57:43.338Z,101300.52
